createdAt,value
2023-04-03T00:00:39.351Z,96119.78
2023-04-03T00:01:41.570Z,96119.56
2023-04-03T00:02:43.351Z,96120.94
2023-04-03T00:03:45.069Z,96127.81
2023-04-03T00:04:46.658Z,96123.38
2023-04-03T00:05:48.492Z,96125.81
2023-04-03T00:06:50.202Z,96126.88
2023-04-03T00:07:51.881Z,96123.56
2023-04-03T00:08:53.845Z,96120.94
2023-04-03T00:09:55.485Z,96117.72
2023-04-03T00:10:57.502Z,96114.69
2023-04-03T00:11:59.055Z,96113.13
2023-04-03T00:13:00.639Z,96118.53
2023-04-03T00:14:02.174Z,96121.09
2023-04-03T00:15:03.983Z,96120.97
2023-04-03T00:16:06.448Z,96126.78
2023-04-03T00:17:08.131Z,96126.13
2023-04-03T00:18:10.149Z,96114.06
2023-04-03T00:19:13.004Z,96128.09
2023-04-03T00:20:14.584Z,96124.50
2023-04-03T00:21:16.625Z,96124.97
2023-04-03T00:22:18.160Z,96124.31
2023-04-03T00:23:19.740Z,96133.88
2023-04-03T00:24:21.286Z,96135.00
2023-04-03T00:25:23.142Z,96126.75
2023-04-03T00:26:24.688Z,96133.66
2023-04-03T00:27:26.244Z,96122.94
2023-04-03T00:28:27.920Z,96123.81
2023-04-03T00:29:29.463Z,96128.97
2023-04-03T00:30:31.541Z,96124.91
2023-04-03T00:31:33.224Z,96130.38
2023-04-03T00:32:35.347Z,96131.81
2023-04-03T00:33:36.883Z,96128.97
2023-04-03T00:34:38.443Z,96126.19
2023-04-03T00:35:40.519Z,96122.38
2023-04-03T00:36:42.305Z,96126.38
2023-04-03T00:37:44.249Z,96124.25
2023-04-03T00:38:46.011Z,96132.03
2023-04-03T00:39:47.585Z,96138.72
2023-04-03T00:40:50.499Z,96126.09
2023-04-03T00:41:52.190Z,96132.34
2023-04-03T00:42:58.612Z,96138.22
2023-04-03T00:44:00.253Z,96131.56
2023-04-03T00:45:01.884Z,96139.31
2023-04-03T00:46:04.017Z,96131.91
2023-04-03T00:47:09.504Z,96136.81
2023-04-03T00:48:14.794Z,96138.63
2023-04-03T00:49:16.408Z,96137.25
2023-04-03T00:50:18.777Z,96135.47
2023-04-03T00:51:27.810Z,96141.03
2023-04-03T00:52:31.747Z,96142.03
2023-04-03T00:53:39.826Z,96136.25
2023-04-03T00:54:43.104Z,96141.22
2023-04-03T00:55:47.445Z,96140.97
2023-04-03T00:56:50.833Z,96144.09
2023-04-03T00:57:53.432Z,96144.09
2023-04-03T00:59:07.089Z,96146.31
2023-04-03T01:00:12.551Z,96149.88
2023-04-03T01:01:19.555Z,96149.63
2023-04-03T01:02:21.288Z,96147.81
2023-04-03T01:03:23.204Z,96154.00
2023-04-03T01:04:32.238Z,96154.69
2023-04-03T01:05:34.039Z,96147.41
2023-04-03T01:06:38.172Z,96148.09
2023-04-03T01:07:40.772Z,96142.75
2023-04-03T01:08:42.848Z,96141.69
2023-04-03T01:09:47.849Z,96144.34
2023-04-03T01:10:49.417Z,96144.47
2023-04-03T01:11:51.148Z,96143.31
2023-04-03T01:12:53.381Z,96139.25
2023-04-03T01:13:55.421Z,96142.50
2023-04-03T01:15:02.865Z,96138.81
2023-04-03T01:16:06.456Z,96138.06
2023-04-03T01:17:46.684Z,96133.28
2023-04-03T01:18:48.424Z,96131.72
2023-04-03T01:20:12.036Z,96133.47
2023-04-03T01:21:57.084Z,96128.56
2023-04-03T01:23:10.988Z,96126.88
2023-04-03T01:24:23.760Z,96135.22
2023-04-03T01:25:25.758Z,96133.34
2023-04-03T01:26:29.313Z,96133.47
2023-04-03T01:27:30.986Z,96137.25
2023-04-03T01:28:36.593Z,96128.09
2023-04-03T01:29:38.752Z,96141.13
2023-04-03T01:30:51.744Z,96130.88
2023-04-03T01:31:56.462Z,96131.66
2023-04-03T01:32:58.484Z,96135.44
2023-04-03T01:34:00.368Z,96139.69
2023-04-03T01:35:01.973Z,96133.66
2023-04-03T01:36:04.288Z,96132.09
2023-04-03T01:37:06.050Z,96137.44
2023-04-03T01:38:07.966Z,96132.78
2023-04-03T01:39:09.755Z,96136.47
2023-04-03T01:40:11.706Z,96130.56
2023-04-03T01:41:13.403Z,96124.81
2023-04-03T01:42:14.969Z,96133.25
2023-04-03T01:43:16.493Z,96126.44
2023-04-03T01:44:18.184Z,96125.00
2023-04-03T01:45:19.748Z,96121.91
2023-04-03T01:46:21.657Z,96131.34
2023-04-03T01:47:23.713Z,96126.53
2023-04-03T01:48:25.353Z,96124.31
2023-04-03T01:49:26.995Z,96124.78
2023-04-03T01:50:28.537Z,96119.19
2023-04-03T01:51:30.475Z,96121.97
2023-04-03T01:52:32.009Z,96122.41
2023-04-03T01:53:33.734Z,96112.69
2023-04-03T01:54:35.269Z,96114.22
2023-04-03T01:55:36.826Z,96113.19
2023-04-03T01:56:40.145Z,96116.38
2023-04-03T01:57:41.812Z,96115.09
2023-04-03T01:58:43.365Z,96122.94
2023-04-03T01:59:44.966Z,96118.94
2023-04-03T02:00:46.758Z,96113.94
2023-04-03T02:01:48.398Z,96115.72
2023-04-03T02:02:49.988Z,96112.66
2023-04-03T02:03:51.847Z,96115.88
2023-04-03T02:04:53.420Z,96114.00
2023-04-03T02:05:55.000Z,96113.34
2023-04-03T02:06:56.635Z,96107.50
2023-04-03T02:07:58.135Z,96113.03
2023-04-03T02:08:59.658Z,96110.88
2023-04-03T02:10:01.266Z,96110.00
2023-04-03T02:11:02.785Z,96112.50
2023-04-03T02:12:04.429Z,96112.50
2023-04-03T02:13:06.445Z,96105.50
2023-04-03T02:14:08.134Z,96107.84
2023-04-03T02:15:10.272Z,96098.75
2023-04-03T02:16:12.496Z,96106.53
2023-04-03T02:17:14.178Z,96100.81
2023-04-03T02:18:16.242Z,96097.25
2023-04-03T02:19:17.769Z,96098.03
2023-04-03T02:20:19.726Z,96104.16
2023-04-03T02:21:21.569Z,96095.91
2023-04-03T02:22:23.112Z,96091.03
2023-04-03T02:23:24.623Z,96094.59
2023-04-03T02:24:26.274Z,96098.16
2023-04-03T02:25:28.254Z,96095.28
2023-04-03T02:26:29.769Z,96094.53
2023-04-03T02:27:32.745Z,96094.59
2023-04-03T02:28:35.316Z,96096.09
2023-04-03T02:29:36.964Z,96087.00
2023-04-03T02:30:38.833Z,96097.94
2023-04-03T02:31:40.542Z,96095.94
2023-04-03T02:32:43.434Z,96095.53
2023-04-03T02:33:45.118Z,96098.25
2023-04-03T02:34:46.633Z,96097.03
2023-04-03T02:35:54.180Z,96094.25
2023-04-03T02:36:55.883Z,96097.59
2023-04-03T02:37:57.632Z,96093.19
2023-04-03T02:38:59.226Z,96087.16
2023-04-03T02:40:00.955Z,96087.84
2023-04-03T02:41:08.925Z,96079.84
2023-04-03T02:42:10.837Z,96088.06
2023-04-03T02:43:12.408Z,96081.06
2023-04-03T02:44:14.202Z,96089.63
2023-04-03T02:45:15.975Z,96086.03
2023-04-03T02:46:17.552Z,96079.00
2023-04-03T02:47:19.131Z,96083.38
2023-04-03T02:48:20.689Z,96089.59
2023-04-03T02:49:22.466Z,96083.28
2023-04-03T02:50:23.970Z,96082.72
2023-04-03T02:51:25.867Z,96070.69
2023-04-03T02:52:27.402Z,96081.25
2023-04-03T02:53:28.973Z,96077.91
2023-04-03T02:54:31.614Z,96080.38
2023-04-03T02:55:33.252Z,96074.38
2023-04-03T02:56:35.351Z,96066.16
2023-04-03T02:57:36.895Z,96074.63
2023-04-03T02:58:38.500Z,96069.06
2023-04-03T02:59:42.961Z,96071.53
2023-04-03T03:00:44.533Z,96077.13
2023-04-03T03:01:46.374Z,96075.13
2023-04-03T03:02:50.259Z,96071.34
2023-04-03T03:03:51.826Z,96071.84
2023-04-03T03:04:53.418Z,96072.94
2023-04-03T03:06:10.691Z,96072.38
2023-04-03T03:07:12.256Z,96068.38
2023-04-03T03:08:13.736Z,96070.50
2023-04-03T03:09:15.728Z,96071.06
2023-04-03T03:10:17.554Z,96072.25
2023-04-03T03:11:19.412Z,96068.47
2023-04-03T03:12:22.834Z,96066.91
2023-04-03T03:13:25.588Z,96075.25
2023-04-03T03:14:27.168Z,96073.81
2023-04-03T03:15:28.722Z,96072.25
2023-04-03T03:16:30.525Z,96075.47
2023-04-03T03:17:32.139Z,96069.50
2023-04-03T03:18:34.040Z,96073.59
2023-04-03T03:19:35.754Z,96070.72
2023-04-03T03:20:37.558Z,96069.81
2023-04-03T03:21:39.504Z,96073.88
2023-04-03T03:22:41.048Z,96074.81
2023-04-03T03:23:42.549Z,96074.25
2023-04-03T03:24:44.120Z,96065.25
2023-04-03T03:25:45.989Z,96080.06
2023-04-03T03:26:47.542Z,96079.84
2023-04-03T03:27:49.073Z,96080.16
2023-04-03T03:28:50.801Z,96073.38
2023-04-03T03:29:52.307Z,96076.03
2023-04-03T03:30:54.074Z,96066.59
2023-04-03T03:31:55.756Z,96066.59
2023-04-03T03:32:57.426Z,96073.81
2023-04-03T03:33:58.948Z,96063.47
2023-04-03T03:35:00.765Z,96061.50
2023-04-03T03:36:02.528Z,96056.72
2023-04-03T03:37:04.200Z,96057.59
2023-04-03T03:38:05.716Z,96063.81
2023-04-03T03:39:07.358Z,96059.03
2023-04-03T03:40:09.690Z,96059.06
2023-04-03T03:41:11.321Z,96058.91
2023-04-03T03:42:12.971Z,96057.34
2023-04-03T03:43:14.505Z,96053.94
2023-04-03T03:44:16.318Z,96049.13
2023-04-03T03:45:17.912Z,96058.69
2023-04-03T03:46:19.482Z,96049.56
2023-04-03T03:47:21.267Z,96057.78
2023-04-03T03:48:24.527Z,96067.81
2023-04-03T03:49:26.431Z,96056.47
2023-04-03T03:50:28.056Z,96063.13
2023-04-03T03:51:29.570Z,96062.31
2023-04-03T03:52:31.273Z,96060.41
2023-04-03T03:53:32.825Z,96066.19
2023-04-03T03:54:34.356Z,96068.63
2023-04-03T03:55:36.331Z,96065.53
2023-04-03T03:56:38.101Z,96070.16
2023-04-03T03:57:39.690Z,96065.28
2023-04-03T03:58:41.214Z,96069.19
2023-04-03T03:59:42.948Z,96072.16
2023-04-03T04:00:44.651Z,96071.50
2023-04-03T04:01:46.244Z,96082.84
2023-04-03T04:02:48.039Z,96088.94
2023-04-03T04:03:49.945Z,96087.50
2023-04-03T04:04:51.750Z,96085.75
2023-04-03T04:05:53.367Z,96086.19
2023-04-03T04:06:55.106Z,96090.16
2023-04-03T04:07:56.692Z,96088.06
2023-04-03T04:08:58.264Z,96089.25
2023-04-03T04:09:59.844Z,96091.44
2023-04-03T04:11:01.478Z,96092.75
2023-04-03T04:12:02.986Z,96091.94
2023-04-03T04:13:04.727Z,96101.34
2023-04-03T04:14:06.651Z,96097.31
2023-04-03T04:15:08.800Z,96095.91
2023-04-03T04:16:10.913Z,96098.69
2023-04-03T04:17:12.443Z,96099.00
2023-04-03T04:18:13.980Z,96103.81
2023-04-03T04:19:15.858Z,96101.81
2023-04-03T04:20:17.456Z,96104.22
2023-04-03T04:21:19.032Z,96089.00
2023-04-03T04:22:20.775Z,96099.38
2023-04-03T04:23:22.340Z,96094.59
2023-04-03T04:24:23.906Z,96093.63
2023-04-03T04:25:25.484Z,96089.97
2023-04-03T04:26:27.205Z,96097.25
2023-04-03T04:27:28.884Z,96091.53
2023-04-03T04:28:30.463Z,96092.09
2023-04-03T04:29:36.611Z,96093.38
2023-04-03T04:30:38.377Z,96094.03
2023-04-03T04:31:39.950Z,96097.25
2023-04-03T04:32:41.856Z,96101.97
2023-04-03T04:33:43.441Z,96101.47
2023-04-03T04:34:44.991Z,96107.59
2023-04-03T04:35:48.957Z,96113.19
2023-04-03T04:36:50.674Z,96111.28
2023-04-03T04:37:52.459Z,96104.94
2023-04-03T04:38:54.105Z,96116.59
2023-04-03T04:39:55.699Z,96107.84
2023-04-03T04:40:57.219Z,96106.81
2023-04-03T04:41:58.789Z,96115.53
2023-04-03T04:43:00.429Z,96115.13
2023-04-03T04:44:02.016Z,96107.84
2023-04-03T04:45:03.885Z,96108.53
2023-04-03T04:46:07.834Z,96106.44
2023-04-03T04:47:09.474Z,96103.25
2023-04-03T04:48:11.129Z,96098.16
2023-04-03T04:49:12.839Z,96101.28
2023-04-03T04:50:14.511Z,96103.25
2023-04-03T04:51:16.603Z,96100.63
2023-04-03T04:52:18.147Z,96100.31
2023-04-03T04:53:19.704Z,96103.59
2023-04-03T04:54:21.466Z,96102.63
2023-04-03T04:55:23.036Z,96101.63
2023-04-03T04:56:24.567Z,96099.50
2023-04-03T04:57:26.287Z,96102.19
2023-04-03T04:58:27.954Z,96102.19
2023-04-03T04:59:29.503Z,96105.84
2023-04-03T05:00:31.126Z,96106.72
2023-04-03T05:01:32.676Z,96117.34
2023-04-03T05:02:34.346Z,96105.09
2023-04-03T05:03:35.970Z,96110.69
2023-04-03T05:04:37.530Z,96106.78
2023-04-03T05:05:39.716Z,96107.78
2023-04-03T05:06:41.898Z,96099.78
2023-04-03T05:07:43.426Z,96105.22
2023-04-03T05:08:44.984Z,96097.31
2023-04-03T05:09:46.544Z,96103.06
2023-04-03T05:10:48.514Z,96104.41
2023-04-03T05:11:50.066Z,96099.72
2023-04-03T05:12:51.708Z,96099.72
2023-04-03T05:13:53.795Z,96098.13
2023-04-03T05:14:55.411Z,96098.34
2023-04-03T05:15:56.968Z,96101.22
2023-04-03T05:16:59.131Z,96087.31
2023-04-03T05:18:00.748Z,96083.78
2023-04-03T05:19:02.327Z,96083.09
2023-04-03T05:20:05.973Z,96086.72
2023-04-03T05:21:07.479Z,96083.03
2023-04-03T05:22:09.054Z,96086.81
2023-04-03T05:23:11.777Z,96086.47
2023-04-03T05:24:13.437Z,96100.13
2023-04-03T05:25:15.009Z,96095.00
2023-04-03T05:26:17.751Z,96100.31
2023-04-03T05:27:19.247Z,96094.78
2023-04-03T05:28:20.830Z,96094.59
2023-04-03T05:29:22.669Z,96087.25
2023-04-03T05:30:24.235Z,96099.16
2023-04-03T05:31:25.985Z,96087.97
2023-04-03T05:32:28.622Z,96095.69
2023-04-03T05:33:30.380Z,96095.72
2023-04-03T05:34:31.896Z,96089.88
2023-04-03T05:35:33.503Z,96097.66
2023-04-03T05:36:35.322Z,96087.50
2023-04-03T05:37:37.644Z,96090.09
2023-04-03T05:38:40.669Z,96090.66
2023-04-03T05:39:42.514Z,96088.22
2023-04-03T05:40:44.049Z,96093.34
2023-04-03T05:41:45.771Z,96098.03
2023-04-03T05:42:47.381Z,96099.81
2023-04-03T05:43:49.044Z,96093.94
2023-04-03T05:44:51.203Z,96094.06
2023-04-03T05:45:53.681Z,96097.06
2023-04-03T05:46:55.562Z,96099.63
2023-04-03T05:47:57.162Z,96093.84
2023-04-03T05:48:58.770Z,96097.84
2023-04-03T05:50:00.348Z,96098.31
2023-04-03T05:51:01.859Z,96095.84
2023-04-03T05:52:03.493Z,96095.03
2023-04-03T05:53:05.205Z,96086.94
2023-04-03T05:54:15.120Z,96091.19
2023-04-03T05:55:16.960Z,96089.19
2023-04-03T05:56:18.514Z,96097.06
2023-04-03T05:57:20.651Z,96098.72
2023-04-03T05:58:22.249Z,96100.22
2023-04-03T05:59:23.768Z,96093.06
2023-04-03T06:00:25.762Z,96098.16
2023-04-03T06:01:27.472Z,96093.13
2023-04-03T06:02:29.096Z,96093.16
2023-04-03T06:03:31.198Z,96091.47
2023-04-03T06:04:32.878Z,96094.13
2023-04-03T06:05:34.453Z,96090.94
2023-04-03T06:06:54.116Z,96100.94
2023-04-03T06:07:56.107Z,96096.06
2023-04-03T06:08:57.746Z,96101.22
2023-04-03T06:09:59.336Z,96100.81
2023-04-03T06:11:00.956Z,96095.69
2023-04-03T06:12:02.995Z,96091.28
2023-04-03T06:13:04.628Z,96101.97
2023-04-03T06:14:06.137Z,96099.59
2023-04-03T06:15:09.242Z,96101.97
2023-04-03T06:16:16.382Z,96103.84
2023-04-03T06:17:19.560Z,96107.34
2023-04-03T06:18:21.592Z,96100.06
2023-04-03T06:19:23.342Z,96107.72
2023-04-03T06:20:25.147Z,96099.72
2023-04-03T06:21:27.669Z,96102.06
2023-04-03T06:22:30.918Z,96093.97
2023-04-03T06:23:33.776Z,96098.41
2023-04-03T06:24:36.521Z,96097.09
2023-04-03T06:25:38.234Z,96095.22
2023-04-03T06:26:39.791Z,96096.25
2023-04-03T06:27:41.538Z,96098.72
2023-04-03T06:28:43.090Z,96096.06
2023-04-03T06:29:46.273Z,96098.31
2023-04-03T06:30:47.883Z,96101.09
2023-04-03T06:31:50.281Z,96098.72
2023-04-03T06:32:52.114Z,96102.31
2023-04-03T06:33:53.682Z,96106.06
2023-04-03T06:34:55.482Z,96105.75
2023-04-03T06:35:59.120Z,96114.22
2023-04-03T06:37:01.385Z,96112.78
2023-04-03T06:38:05.508Z,96103.22
2023-04-03T06:39:08.018Z,96110.34
2023-04-03T06:40:20.873Z,96105.66
2023-04-03T06:41:22.448Z,96109.31
2023-04-03T06:42:24.829Z,96103.38
2023-04-03T06:43:27.095Z,96098.25
2023-04-03T06:44:28.672Z,96098.56
2023-04-03T06:45:30.199Z,96105.66
2023-04-03T06:46:31.841Z,96107.75
2023-04-03T06:47:33.461Z,96103.75
2023-04-03T06:48:35.043Z,96102.38
2023-04-03T06:49:38.062Z,96099.88
2023-04-03T06:50:40.110Z,96098.84
2023-04-03T06:51:41.687Z,96096.44
2023-04-03T06:52:43.489Z,96087.81
2023-04-03T06:53:45.599Z,96073.97
2023-04-03T06:54:48.277Z,96066.53
2023-04-03T06:55:49.815Z,96060.94
2023-04-03T06:56:52.101Z,96058.00
2023-04-03T06:57:53.675Z,96049.97
2023-04-03T06:58:58.530Z,96053.44
2023-04-03T07:00:00.153Z,96059.31
2023-04-03T07:01:01.997Z,96053.38
2023-04-03T07:02:04.047Z,96063.03
2023-04-03T07:03:05.877Z,96066.94
2023-04-03T07:04:08.665Z,96056.72
2023-04-03T07:05:10.640Z,96058.00
2023-04-03T07:06:13.932Z,96059.50
2023-04-03T07:07:15.969Z,96064.25
2023-04-03T07:08:17.570Z,96055.88
2023-04-03T07:09:19.539Z,96053.63
2023-04-03T07:10:21.558Z,96051.66
2023-04-03T07:11:23.701Z,96049.75
2023-04-03T07:12:25.280Z,96043.91
2023-04-03T07:13:27.531Z,96046.34
2023-04-03T07:14:29.076Z,96040.38
2023-04-03T07:15:31.170Z,96042.69
2023-04-03T07:16:33.073Z,96044.03
2023-04-03T07:17:34.815Z,96045.59
2023-04-03T07:18:36.525Z,96042.03
2023-04-03T07:19:38.083Z,96049.88
2023-04-03T07:20:40.177Z,96044.53
2023-04-03T07:21:42.973Z,96048.31
2023-04-03T07:22:44.576Z,96039.81
2023-04-03T07:23:46.236Z,96045.16
2023-04-03T07:24:47.758Z,96034.66
2023-04-03T07:25:51.156Z,96038.38
2023-04-03T07:26:55.693Z,96044.19
2023-04-03T07:27:57.371Z,96042.56
2023-04-03T07:28:58.915Z,96041.16
2023-04-03T07:30:00.446Z,96039.56
2023-04-03T07:31:07.268Z,96034.50
2023-04-03T07:32:08.820Z,96036.16
2023-04-03T07:33:10.394Z,96034.66
2023-04-03T07:34:12.297Z,96037.69
2023-04-03T07:35:14.101Z,96039.94
2023-04-03T07:36:19.214Z,96036.03
2023-04-03T07:37:21.538Z,96041.63
2023-04-03T07:38:23.520Z,96032.31
2023-04-03T07:39:25.313Z,96029.06
2023-04-03T07:40:26.870Z,96031.66
2023-04-03T07:41:29.627Z,96032.00
2023-04-03T07:42:31.451Z,96032.78
2023-04-03T07:43:33.894Z,96029.19
2023-04-03T07:44:36.462Z,96030.13
2023-04-03T07:45:38.282Z,96030.50
2023-04-03T07:46:40.145Z,96025.47
2023-04-03T07:47:41.880Z,96021.91
2023-04-03T07:48:43.584Z,96031.34
2023-04-03T07:49:45.497Z,96022.59
2023-04-03T07:50:47.322Z,96020.53
2023-04-03T07:51:49.588Z,96021.09
2023-04-03T07:52:51.849Z,96019.09
2023-04-03T07:53:53.524Z,96019.03
2023-04-03T07:54:55.063Z,96020.75
2023-04-03T07:55:58.220Z,96011.97
2023-04-03T07:56:59.879Z,96015.25
2023-04-03T07:58:01.456Z,96015.25
2023-04-03T07:59:03.421Z,96006.75
2023-04-03T08:00:06.390Z,96012.97
2023-04-03T08:01:08.283Z,96011.09
2023-04-03T08:02:13.674Z,96007.81
2023-04-03T08:03:17.660Z,96013.34
2023-04-03T08:04:19.517Z,95998.28
2023-04-03T08:05:22.350Z,96006.19
2023-04-03T08:06:37.468Z,96003.00
2023-04-03T08:07:44.211Z,96003.84
2023-04-03T08:08:46.767Z,96009.03
2023-04-03T08:09:48.317Z,96005.22
2023-04-03T08:10:51.786Z,96004.19
2023-04-03T08:11:54.478Z,96004.88
2023-04-03T08:12:56.030Z,95995.47
2023-04-03T08:13:58.148Z,95996.16
2023-04-03T08:15:01.632Z,95991.25
2023-04-03T08:16:16.900Z,95984.78
2023-04-03T08:17:18.480Z,95986.75
2023-04-03T08:18:22.714Z,95981.56
2023-04-03T08:19:26.605Z,95986.06
2023-04-03T08:20:29.169Z,95980.84
2023-04-03T08:21:30.868Z,95975.16
2023-04-03T08:22:32.461Z,95977.91
2023-04-03T08:23:34.021Z,95968.63
2023-04-03T08:24:36.474Z,95962.75
2023-04-03T08:25:43.319Z,95959.34
2023-04-03T08:26:44.862Z,95953.03
2023-04-03T08:27:46.513Z,95955.13
2023-04-03T08:28:49.349Z,95960.22
2023-04-03T08:29:51.418Z,95958.22
2023-04-03T08:30:53.038Z,95966.00
2023-04-03T08:31:54.879Z,95960.63
2023-04-03T08:32:56.499Z,95968.97
2023-04-03T08:33:59.084Z,95952.88
2023-04-03T08:35:00.639Z,95947.22
2023-04-03T08:36:02.734Z,95947.97
2023-04-03T08:37:04.260Z,95939.81
2023-04-03T08:38:05.846Z,95937.06
2023-04-03T08:39:07.883Z,95937.97
2023-04-03T08:40:15.736Z,95944.31
2023-04-03T08:41:22.812Z,95933.00
2023-04-03T08:43:05.197Z,95936.16
2023-04-03T08:44:18.983Z,95936.84
2023-04-03T08:45:34.501Z,95930.44
2023-04-03T08:46:53.804Z,95926.81
2023-04-03T08:48:15.559Z,95927.75
2023-04-03T08:49:32.518Z,95926.91
2023-04-03T08:50:41.792Z,95929.72
2023-04-03T08:51:49.526Z,95925.50
2023-04-03T08:52:54.931Z,95924.41
2023-04-03T08:54:09.093Z,95925.31
2023-04-03T08:55:32.972Z,95927.06
2023-04-03T08:56:36.364Z,95919.72
2023-04-03T08:57:43.689Z,95918.88
2023-04-03T08:59:01.741Z,95916.19
2023-04-03T09:00:19.279Z,95918.00
2023-04-03T09:01:41.966Z,95908.66
2023-04-03T09:02:52.639Z,95913.44
2023-04-03T09:03:54.601Z,95905.59
2023-04-03T09:04:56.686Z,95904.94
2023-04-03T09:06:21.466Z,95896.59
2023-04-03T09:07:34.077Z,95899.47
2023-04-03T09:09:16.483Z,95887.94
2023-04-03T09:10:28.322Z,95893.13
2023-04-03T09:11:42.438Z,95890.28
2023-04-03T09:12:50.935Z,95894.06
2023-04-03T09:14:02.657Z,95895.78
2023-04-03T09:15:14.361Z,95898.31
2023-04-03T09:16:47.981Z,95890.25
2023-04-03T09:18:08.390Z,95891.03
2023-04-03T09:19:34.041Z,95894.28
2023-04-03T09:21:09.179Z,95888.09
2023-04-03T09:22:19.646Z,95889.66
2023-04-03T09:23:30.576Z,95885.19
2023-04-03T09:24:34.360Z,95886.13
2023-04-03T09:25:38.452Z,95888.47
2023-04-03T09:26:49.710Z,95890.59
2023-04-03T09:27:52.504Z,95894.94
2023-04-03T09:28:56.987Z,95890.16
2023-04-03T09:29:59.104Z,95888.69
2023-04-03T09:31:01.916Z,95891.38
2023-04-03T09:32:26.291Z,95897.72
2023-04-03T09:33:30.335Z,95896.03
2023-04-03T09:34:36.210Z,95892.91
2023-04-03T09:35:47.248Z,95889.06
2023-04-03T09:36:49.936Z,95886.03
2023-04-03T09:38:00.851Z,95895.47
2023-04-03T09:39:06.918Z,95899.56
2023-04-03T09:40:27.003Z,95900.19
2023-04-03T09:41:29.382Z,95898.16
2023-04-03T09:42:33.016Z,95903.34
2023-04-03T09:43:39.631Z,95900.22
2023-04-03T09:44:41.189Z,95905.19
2023-04-03T09:45:43.101Z,95902.00
2023-04-03T09:46:44.860Z,95906.56
2023-04-03T09:47:46.729Z,95905.47
2023-04-03T09:49:09.028Z,95905.72
2023-04-03T09:50:14.962Z,95903.06
2023-04-03T09:51:16.867Z,95903.56
2023-04-03T09:52:25.485Z,95904.47
2023-04-03T09:53:34.610Z,95902.47
2023-04-03T09:54:41.115Z,95907.25
2023-04-03T09:55:45.439Z,95903.28
2023-04-03T09:56:51.730Z,95899.78
2023-04-03T09:57:55.076Z,95893.59
2023-04-03T09:58:59.706Z,95895.81
2023-04-03T10:00:06.039Z,95885.88
2023-04-03T10:01:24.059Z,95882.19
2023-04-03T10:02:41.057Z,95881.50
2023-04-03T10:03:47.637Z,95887.84
2023-04-03T10:04:58.718Z,95889.56
2023-04-03T10:06:25.039Z,95889.56
2023-04-03T10:07:33.268Z,95888.56
2023-04-03T10:08:36.147Z,95885.28
2023-04-03T10:09:40.446Z,95888.88
2023-04-03T10:10:49.738Z,95886.00
2023-04-03T10:12:13.182Z,95889.28
2023-04-03T10:13:22.328Z,95890.09
2023-04-03T10:14:24.061Z,95895.56
2023-04-03T10:15:29.551Z,95903.38
2023-04-03T10:16:34.900Z,95891.91
2023-04-03T10:17:48.948Z,95895.50
2023-04-03T10:19:05.954Z,95892.06
2023-04-03T10:20:34.560Z,95896.72
2023-04-03T10:21:51.832Z,95891.84
2023-04-03T10:23:18.929Z,95891.25
2023-04-03T10:24:30.414Z,95889.13
2023-04-03T10:25:59.815Z,95886.59
2023-04-03T10:27:19.708Z,95897.09
2023-04-03T10:28:24.851Z,95888.72
2023-04-03T10:29:29.640Z,95889.00
2023-04-03T10:30:52.950Z,95878.69
2023-04-03T10:32:03.168Z,95874.91
2023-04-03T10:33:26.537Z,95865.75
2023-04-03T10:34:34.551Z,95862.03
2023-04-03T10:36:10.164Z,95862.88
2023-04-03T10:37:51.892Z,95857.25
2023-04-03T10:39:29.459Z,95858.47
2023-04-03T10:40:52.985Z,95859.31
2023-04-03T10:42:00.719Z,95853.22
2023-04-03T10:43:22.005Z,95857.09
2023-04-03T10:44:39.138Z,95853.72
2023-04-03T10:45:52.864Z,95847.22
2023-04-03T10:47:05.055Z,95841.84
2023-04-03T10:48:24.838Z,95840.38
2023-04-03T10:49:57.055Z,95834.31
2023-04-03T10:51:34.730Z,95831.25
2023-04-03T10:52:58.303Z,95836.97
2023-04-03T10:54:25.408Z,95831.16
2023-04-03T10:55:27.310Z,95828.03
2023-04-03T10:56:37.274Z,95826.38
2023-04-03T10:57:39.097Z,95832.09
2023-04-03T10:58:44.861Z,95828.72
2023-04-03T10:59:55.111Z,95819.50
2023-04-03T11:01:02.456Z,95815.34
2023-04-03T11:02:08.580Z,95816.91
2023-04-03T11:03:35.569Z,95814.09
2023-04-03T11:04:40.628Z,95809.50
2023-04-03T11:05:45.729Z,95822.56
2023-04-03T11:06:58.842Z,95814.94
2023-04-03T11:08:05.719Z,95821.88
2023-04-03T11:09:32.335Z,95812.69
2023-04-03T11:10:43.431Z,95816.59
2023-04-03T11:11:45.658Z,95813.94
2023-04-03T11:12:52.858Z,95816.25
2023-04-03T11:14:06.592Z,95820.50
2023-04-03T11:15:23.287Z,95809.81
2023-04-03T11:16:28.270Z,95812.91
2023-04-03T11:17:47.502Z,95812.19
2023-04-03T11:19:01.048Z,95807.97
2023-04-03T11:20:11.849Z,95808.38
2023-04-03T11:21:44.201Z,95813.00
2023-04-03T11:23:05.023Z,95806.88
2023-04-03T11:24:31.199Z,95805.72
2023-04-03T11:25:39.114Z,95803.03
2023-04-03T11:26:43.369Z,95790.31
2023-04-03T11:27:52.821Z,95792.19
2023-04-03T11:29:00.648Z,95785.91
2023-04-03T11:30:06.918Z,95784.25
2023-04-03T11:31:14.183Z,95779.19
2023-04-03T11:32:56.790Z,95781.78
2023-04-03T11:34:09.184Z,95784.75
2023-04-03T11:35:11.971Z,95775.56
2023-04-03T11:36:30.337Z,95776.34
2023-04-03T11:37:45.351Z,95777.94
2023-04-03T11:38:50.166Z,95777.16
2023-04-03T11:39:59.471Z,95771.75
2023-04-03T11:41:01.493Z,95776.41
2023-04-03T11:42:39.030Z,95764.81
2023-04-03T11:44:25.960Z,95763.63
2023-04-03T11:45:51.994Z,95764.03
2023-04-03T11:46:58.150Z,95758.25
2023-04-03T11:48:16.682Z,95755.97
2023-04-03T11:50:00.865Z,95743.94
2023-04-03T11:51:23.520Z,95746.25
2023-04-03T11:52:43.744Z,95737.03
2023-04-03T11:53:46.692Z,95735.06
2023-04-03T11:54:49.542Z,95732.38
2023-04-03T11:55:51.134Z,95733.94
2023-04-03T11:56:52.841Z,95728.56
2023-04-03T11:58:02.886Z,95732.00
2023-04-03T11:59:14.494Z,95726.19
2023-04-03T12:00:51.983Z,95728.38
2023-04-03T12:01:53.719Z,95724.41
2023-04-03T12:02:55.781Z,95725.88
2023-04-03T12:04:05.975Z,95725.88
2023-04-03T12:05:29.670Z,95719.06
2023-04-03T12:06:34.041Z,95728.31
2023-04-03T12:07:35.717Z,95712.63
2023-04-03T12:08:40.322Z,95709.97
2023-04-03T12:09:42.087Z,95706.84
2023-04-03T12:10:43.713Z,95711.44
2023-04-03T12:11:45.351Z,95714.53
2023-04-03T12:12:58.594Z,95711.47
2023-04-03T12:14:00.269Z,95712.63
2023-04-03T12:15:44.093Z,95706.50
2023-04-03T12:16:48.544Z,95700.47
2023-04-03T12:17:51.751Z,95692.44
2023-04-03T12:18:53.409Z,95697.47
2023-04-03T12:19:55.144Z,95684.84
2023-04-03T12:20:57.933Z,95685.69
2023-04-03T12:22:00.293Z,95682.66
2023-04-03T12:23:29.767Z,95684.22
2023-04-03T12:24:33.608Z,95684.59
2023-04-03T12:25:50.926Z,95679.63
2023-04-03T12:26:59.272Z,95681.13
2023-04-03T12:28:00.963Z,95678.84
2023-04-03T12:29:17.020Z,95676.94
2023-04-03T12:30:29.238Z,95681.56
2023-04-03T12:31:42.518Z,95682.66
2023-04-03T12:33:12.656Z,95675.59
2023-04-03T12:34:36.433Z,95675.56
2023-04-03T12:35:50.042Z,95674.44
2023-04-03T12:37:01.684Z,95671.81
2023-04-03T12:38:21.627Z,95678.78
2023-04-03T12:39:43.882Z,95670.34
2023-04-03T12:41:11.578Z,95663.50
2023-04-03T12:42:25.995Z,95664.69
2023-04-03T12:43:55.409Z,95662.00
2023-04-03T12:45:11.642Z,95656.56
2023-04-03T12:46:18.345Z,95661.59
2023-04-03T12:47:28.405Z,95662.16
2023-04-03T12:48:32.448Z,95664.19
2023-04-03T12:49:39.287Z,95664.41
2023-04-03T12:50:43.991Z,95664.00
2023-04-03T12:51:48.040Z,95663.75